Time;durP1;ratioP1;P1;durP2;ratioP2;P2;SDS_P1;SDS_P2;PMS_P1;PMS_P2;Temp;Humidity;BMP_temperature;BMP_pressure;BME280_temperature;BME280_humidity;BME280_pressure;Samples;Min_cycle;Max_cycle;Signal;HPM_P1;HPM_P2
2021/01/10 00:02:21;;;;;;;3.70;2.40;;;20.70;41.30;;;;;;5114077;28;20032;-46
2021/01/10 00:04:47;;;;;;;4.55;2.35;;;20.60;41.30;;;;;;5113497;28;20012;-45
2021/01/10 00:07:12;;;;;;;3.40;2.35;;;20.70;41.30;;;;;;5113168;28;20023;-58
2021/01/10 00:09:38;;;;;;;5.13;2.35;;;20.70;41.30;;;;;;5114944;28;20388;-37
2021/01/10 00:12:04;;;;;;;4.28;2.35;;;20.70;41.30;;;;;;5113999;28;20487;-46
2021/01/10 00:14:29;;;;;;;2.97;2.38;;;20.70;41.20;;;;;;5113122;28;20051;-56
2021/01/10 00:16:55;;;;;;;5.15;2.13;;;20.70;41.20;;;;;;5114174;28;20101;-47
2021/01/10 00:19:20;;;;;;;3.80;2.55;;;20.70;41.20;;;;;;5114513;28;20103;-47
2021/01/10 00:21:46;;;;;;;4.13;2.75;;;20.70;41.30;;;;;;5113196;28;20029;-44
2021/01/10 00:24:12;;;;;;;3.25;1.83;;;20.70;41.20;;;;;;5113954;28;20465;-46
2021/01/10 00:26:38;;;;;;;4.10;2.83;;;20.70;41.20;;;;;;5112951;28;20449;-48
2021/01/10 00:29:08;;;;;;;3.63;2.15;;;20.70;41.20;;;;;;5113497;28;20077;-45
2021/01/10 00:31:37;;;;;;;3.85;2.65;;;20.70;41.20;;;;;;5112820;28;20087;-48
2021/01/10 00:34:03;;;;;;;3.28;2.50;;;20.70;41.10;;;;;;5111233;28;20574;-49
2021/01/10 00:36:36;;;;;;;2.85;2.25;;;20.70;41.10;;;;;;5113181;28;20141;-56
2021/01/10 00:39:05;;;;;;;3.67;2.53;;;20.70;41.10;;;;;;5110889;28;20496;-44
2021/01/10 00:41:40;;;;;;;3.78;2.38;;;20.70;41.10;;;;;;5112875;28;20503;-46
2021/01/10 00:44:06;;;;;;;2.97;2.17;;;20.70;41.10;;;;;;5111404;28;20019;-39
2021/01/10 00:46:33;;;;;;;3.53;2.50;;;20.70;41.10;;;;;;5112905;28;20020;-42
2021/01/10 00:49:02;;;;;;;4.63;2.50;;;20.70;41.10;;;;;;5113500;28;20011;-42
2021/01/10 00:51:28;;;;;;;5.00;2.20;;;20.70;41.10;;;;;;5112959;28;20053;-56
2021/01/10 00:53:53;;;;;;;4.28;2.80;;;20.70;41.00;;;;;;5113034;28;20079;-43
2021/01/10 00:56:19;;;;;;;3.67;2.65;;;20.70;41.10;;;;;;5113176;28;20015;-36
2021/01/10 00:58:45;;;;;;;4.85;2.38;;;20.70;41.00;;;;;;5112663;28;20026;-44
2021/01/10 01:01:10;;;;;;;3.72;2.67;;;20.70;41.00;;;;;;5114077;28;20106;-43
2021/01/10 01:03:36;;;;;;;2.83;2.45;;;20.70;41.00;;;;;;5113082;28;20016;-44
2021/01/10 01:06:04;;;;;;;4.05;2.88;;;20.70;41.00;;;;;;5113105;28;20035;-46
2021/01/10 01:08:29;;;;;;;4.50;2.65;;;20.70;41.00;;;;;;5110967;28;20028;-55
2021/01/10 01:10:55;;;;;;;3.42;2.83;;;20.70;40.90;;;;;;5112546;28;20727;-44
2021/01/10 01:13:21;;;;;;;6.07;2.80;;;20.70;40.80;;;;;;5112841;27;20052;-49
2021/01/10 01:15:50;;;;;;;3.03;2.58;;;20.70;40.90;;;;;;5112440;28;20653;-55
2021/01/10 01:18:19;;;;;;;3.30;2.55;;;20.80;40.80;;;;;;5112554;28;20488;-48
2021/01/10 01:20:46;;;;;;;3.00;2.45;;;20.70;40.80;;;;;;5112137;28;20426;-44
2021/01/10 01:23:12;;;;;;;3.22;2.33;;;20.80;40.80;;;;;;5112757;28;20106;-46
2021/01/10 01:25:38;;;;;;;4.88;2.65;;;20.70;40.80;;;;;;5111904;28;20024;-41
2021/01/10 01:28:04;;;;;;;3.25;2.47;;;20.80;40.80;;;;;;5112910;28;20030;-46
2021/01/10 01:30:30;;;;;;;3.95;2.88;;;20.80;40.80;;;;;;5112251;28;20058;-46
2021/01/10 01:32:56;;;;;;;3.63;2.88;;;20.70;40.70;;;;;;5112393;28;20031;-50
2021/01/10 01:35:21;;;;;;;3.72;2.75;;;20.80;40.70;;;;;;5112850;28;20042;-39
2021/01/10 01:37:47;;;;;;;3.95;3.08;;;20.80;40.70;;;;;;5111872;28;20051;-44
2021/01/10 01:40:13;;;;;;;3.13;2.45;;;20.80;41.40;;;;;;5112844;28;20031;-45
2021/01/10 01:42:38;;;;;;;5.35;2.92;;;20.70;40.70;;;;;;5111635;28;20022;-45
2021/01/10 01:45:06;;;;;;;3.40;2.55;;;20.70;40.70;;;;;;5112540;28;20023;-51
2021/01/10 01:47:34;;;;;;;4.00;2.63;;;20.70;40.70;;;;;;5110090;28;20019;-43
2021/01/10 01:50:02;;;;;;;3.72;2.97;;;20.70;40.70;;;;;;5112402;28;20392;-36
2021/01/10 01:52:27;;;;;;;4.22;2.72;;;20.70;40.70;;;;;;5110817;28;20019;-57
2021/01/10 01:54:53;;;;;;;4.82;3.03;;;20.80;40.70;;;;;;5111499;28;20042;-40
2021/01/10 01:57:19;;;;;;;3.55;2.92;;;20.70;40.70;;;;;;5112188;28;20024;-51
2021/01/10 01:59:46;;;;;;;5.43;3.63;;;20.80;40.70;;;;;;5111895;28;20035;-44
2021/01/10 02:02:12;;;;;;;4.22;3.20;;;20.70;40.70;;;;;;5112817;28;20019;-44
2021/01/10 02:04:52;;;;;;;3.65;2.65;;;20.70;40.70;;;;;;5112083;28;20035;-44
2021/01/10 02:07:24;;;;;;;6.60;3.75;;;20.70;40.70;;;;;;5113144;28;20098;-44
2021/01/10 02:10:11;;;;;;;3.83;2.90;;;20.80;40.70;;;;;;5112129;28;20637;-44
2021/01/10 02:12:44;;;;;;;3.08;2.70;;;20.80;41.30;;;;;;5111338;28;20028;-43
2021/01/10 02:15:14;;;;;;;4.07;2.63;;;20.80;40.70;;;;;;5110783;28;20027;-45
2021/01/10 02:17:44;;;;;;;3.38;2.58;;;20.80;40.70;;;;;;5108772;28;20103;-46
2021/01/10 02:20:20;;;;;;;4.22;3.05;;;20.80;40.70;;;;;;5111935;28;20030;-42
2021/01/10 02:22:45;;;;;;;4.35;2.92;;;20.80;40.70;;;;;;5107630;28;20602;-44
2021/01/10 02:25:12;;;;;;;3.45;3.10;;;20.80;40.60;;;;;;5111474;28;20110;-49
2021/01/10 02:27:40;;;;;;;3.17;2.72;;;20.70;40.60;;;;;;5111003;28;20020;-50
2021/01/10 02:30:08;;;;;;;4.82;3.50;;;20.80;40.70;;;;;;5111437;28;20035;-46
2021/01/10 02:32:36;;;;;;;4.00;2.90;;;20.80;40.60;;;;;;5110674;28;20511;-45
2021/01/10 02:35:04;;;;;;;3.80;2.95;;;20.70;40.60;;;;;;5111235;28;20468;-55
2021/01/10 02:37:54;;;;;;;5.70;3.25;;;20.80;40.60;;;;;;5111223;28;20035;-52
2021/01/10 02:40:40;;;;;;;4.85;3.00;;;20.70;40.60;;;;;;5109108;28;20122;-45
2021/01/10 02:43:22;;;;;;;3.05;2.53;;;20.80;40.70;;;;;;5110172;28;20032;-44
2021/01/10 02:45:52;;;;;;;3.60;2.90;;;20.80;40.70;;;;;;5109591;28;20280;-48
2021/01/10 02:48:18;;;;;;;5.13;2.58;;;20.80;40.70;;;;;;5111206;28;20023;-44
2021/01/10 02:50:44;;;;;;;3.22;2.72;;;20.70;40.50;;;;;;5110477;28;20024;-49
2021/01/10 02:53:10;;;;;;;2.80;2.50;;;20.80;40.60;;;;;;5111390;28;20404;-46
2021/01/10 02:55:36;;;;;;;4.38;3.05;;;20.70;40.60;;;;;;5110194;28;20020;-44
2021/01/10 02:58:23;;;;;;;4.47;3.03;;;20.80;40.60;;;;;;5111009;28;20023;-46
2021/01/10 03:00:51;;;;;;;3.33;2.70;;;20.80;40.50;;;;;;5109116;28;20616;-47
2021/01/10 03:03:18;;;;;;;4.47;2.72;;;20.80;40.50;;;;;;5108894;28;20028;-37
2021/01/10 03:05:45;;;;;;;4.82;3.33;;;20.80;40.50;;;;;;5110402;28;20020;-40
2021/01/10 03:08:12;;;;;;;5.03;3.03;;;20.80;40.50;;;;;;5111069;28;20023;-47
2021/01/10 03:10:39;;;;;;;3.05;2.65;;;20.80;40.50;;;;;;5109874;28;20035;-39
2021/01/10 03:13:04;;;;;;;4.03;3.00;;;20.80;40.50;;;;;;5110895;28;20067;-46
2021/01/10 03:15:32;;;;;;;4.57;3.20;;;20.80;40.40;;;;;;5110628;28;20062;-55
2021/01/10 03:18:15;;;;;;;3.58;2.95;;;20.80;40.50;;;;;;5108385;28;20031;-44
2021/01/10 03:20:40;;;;;;;3.28;2.72;;;20.80;40.50;;;;;;5107816;28;20016;-41
2021/01/10 03:23:06;;;;;;;3.95;3.00;;;20.80;40.50;;;;;;5111156;28;20422;-57
2021/01/10 03:25:31;;;;;;;3.47;2.42;;;20.80;40.40;;;;;;5109736;28;20074;-50
2021/01/10 03:27:57;;;;;;;3.33;2.47;;;20.80;40.40;;;;;;5110979;28;20460;-52
2021/01/10 03:30:23;;;;;;;3.08;2.63;;;20.80;40.40;;;;;;5109401;28;20120;-48
2021/01/10 03:32:49;;;;;;;3.42;2.67;;;20.80;40.40;;;;;;5110740;28;20047;-37
2021/01/10 03:35:18;;;;;;;4.43;2.53;;;20.80;40.30;;;;;;5114311;28;20023;-41
2021/01/10 03:37:45;;;;;;;3.50;2.20;;;20.80;40.40;;;;;;5115536;28;20030;-40
2021/01/10 03:40:11;;;;;;;3.15;2.53;;;20.80;40.40;;;;;;5116229;28;20034;-44
2021/01/10 03:42:37;;;;;;;2.63;2.30;;;20.80;40.30;;;;;;5115204;27;20128;-36
2021/01/10 03:45:07;;;;;;;2.78;2.10;;;20.80;40.40;;;;;;5116069;28;20187;-40
2021/01/10 03:47:33;;;;;;;2.65;2.33;;;20.80;40.30;;;;;;5115779;28;20027;-37
2021/01/10 03:49:59;;;;;;;3.13;2.53;;;20.80;40.30;;;;;;5115735;28;20031;-50
2021/01/10 03:52:25;;;;;;;3.90;2.33;;;20.70;40.20;;;;;;5115825;28;20491;-45
2021/01/10 03:54:51;;;;;;;5.50;2.13;;;20.80;40.30;;;;;;5114944;28;20105;-36
2021/01/10 03:57:16;;;;;;;5.22;2.17;;;20.80;40.30;;;;;;5115602;28;20020;-56
2021/01/10 03:59:42;;;;;;;2.60;2.20;;;20.80;40.20;;;;;;5115407;28;20097;-52
2021/01/10 04:02:07;;;;;;;3.67;2.17;;;20.70;40.20;;;;;;5116045;28;20354;-37
2021/01/10 04:04:33;;;;;;;5.82;2.67;;;20.70;40.20;;;;;;5114953;28;20034;-47
2021/01/10 04:06:59;;;;;;;4.00;2.65;;;20.80;40.20;;;;;;5115768;28;20072;-39
2021/01/10 04:09:24;;;;;;;3.13;2.25;;;20.80;40.20;;;;;;5115459;28;20063;-38
2021/01/10 04:11:50;;;;;;;2.58;2.33;;;20.80;40.20;;;;;;5113465;28;20023;-46
2021/01/10 04:14:16;;;;;;;2.75;2.20;;;20.80;40.30;;;;;;5115691;28;20047;-40
2021/01/10 04:16:41;;;;;;;2.72;2.28;;;20.80;40.20;;;;;;5114492;28;20492;-57
2021/01/10 04:19:07;;;;;;;4.20;2.30;;;20.80;40.20;;;;;;5115613;28;20024;-38
2021/01/10 04:21:34;;;;;;;3.13;2.25;;;20.80;40.20;;;;;;5114606;28;20460;-57
2021/01/10 04:24:00;;;;;;;5.20;2.85;;;20.70;40.10;;;;;;5115458;28;20092;-44
2021/01/10 04:26:27;;;;;;;2.60;2.30;;;20.80;40.20;;;;;;5115362;28;20027;-44
2021/01/10 04:28:53;;;;;;;2.22;1.83;;;20.80;40.20;;;;;;5114524;28;20035;-49
2021/01/10 04:31:19;;;;;;;3.35;2.42;;;20.70;40.10;;;;;;5115178;28;20051;-52
2021/01/10 04:33:45;;;;;;;3.28;2.38;;;20.80;40.10;;;;;;5114262;28;20028;-42
2021/01/10 04:36:10;;;;;;;3.50;2.35;;;20.80;40.10;;;;;;5115870;28;20026;-38
2021/01/10 04:38:36;;;;;;;3.17;2.67;;;20.80;40.20;;;;;;5114469;28;20102;-56
2021/01/10 04:41:03;;;;;;;3.78;2.55;;;20.80;40.20;;;;;;5114972;28;20069;-42
2021/01/10 04:43:29;;;;;;;3.03;2.33;;;20.80;40.10;;;;;;5115306;28;20020;-48
2021/01/10 04:45:56;;;;;;;3.78;2.25;;;20.80;40.20;;;;;;5113066;28;20031;-52
2021/01/10 04:48:22;;;;;;;2.60;2.13;;;20.70;40.00;;;;;;5115108;28;20102;-36
2021/01/10 04:50:48;;;;;;;2.38;2.15;;;20.80;40.20;;;;;;5114023;28;20036;-40
2021/01/10 04:53:19;;;;;;;3.33;2.40;;;20.80;40.10;;;;;;5115055;28;20020;-36
2021/01/10 04:55:46;;;;;;;3.60;2.28;;;20.80;40.10;;;;;;5114104;28;20027;-41
2021/01/10 04:58:12;;;;;;;2.78;2.30;;;20.80;40.70;;;;;;5114867;28;20032;-57
2021/01/10 05:00:40;;;;;;;2.75;2.42;;;20.70;40.10;;;;;;5112678;28;20445;-45
2021/01/10 05:03:08;;;;;;;2.97;2.42;;;20.80;40.10;;;;;;5114534;28;20456;-46
2021/01/10 05:05:40;;;;;;;2.88;2.50;;;20.80;40.10;;;;;;5112902;28;20027;-54
2021/01/10 05:08:10;;;;;;;2.47;1.98;;;20.80;40.20;;;;;;5114372;28;20093;-42
2021/01/10 05:10:37;;;;;;;3.15;2.45;;;20.80;40.10;;;;;;5113395;28;20051;-42
2021/01/10 05:13:04;;;;;;;3.58;2.35;;;20.80;40.10;;;;;;5113008;28;20047;-45
2021/01/10 05:15:30;;;;;;;3.85;2.33;;;20.80;40.10;;;;;;5114435;28;20080;-41
2021/01/10 05:17:57;;;;;;;3.33;2.33;;;20.80;40.10;;;;;;5113744;28;20110;-41
2021/01/10 05:20:31;;;;;;;3.15;2.33;;;20.80;40.10;;;;;;5114464;28;20092;-44
2021/01/10 05:23:01;;;;;;;3.40;2.20;;;20.80;40.00;;;;;;5113616;28;20098;-49
2021/01/10 05:25:27;;;;;;;2.90;2.22;;;20.80;40.00;;;;;;5114083;28;20055;-52
2021/01/10 05:27:55;;;;;;;3.47;2.65;;;20.80;40.00;;;;;;5113516;28;20027;-45
2021/01/10 05:30:31;;;;;;;2.85;2.35;;;20.80;40.00;;;;;;5114074;28;20040;-36
2021/01/10 05:33:05;;;;;;;2.92;2.25;;;20.80;40.00;;;;;;5113619;28;20027;-38
2021/01/10 05:35:52;;;;;;;2.47;2.08;;;20.80;40.00;;;;;;5114227;28;20033;-38
2021/01/10 05:38:31;;;;;;;3.08;2.30;;;20.80;40.00;;;;;;5114176;28;20369;-47
2021/01/10 05:41:01;;;;;;;3.80;2.72;;;20.80;40.00;;;;;;5113051;28;20028;-39
2021/01/10 05:43:28;;;;;;;3.22;2.55;;;20.80;40.00;;;;;;5114087;28;20082;-36
2021/01/10 05:45:54;;;;;;;3.20;2.33;;;20.80;40.00;;;;;;5112758;28;20022;-48
2021/01/10 05:48:21;;;;;;;3.85;2.80;;;20.80;40.00;;;;;;5113840;28;20023;-48
2021/01/10 05:50:48;;;;;;;2.65;2.22;;;20.80;40.00;;;;;;5113038;28;20114;-47
2021/01/10 05:53:22;;;;;;;3.25;2.42;;;20.80;40.00;;;;;;5113678;28;20028;-39
2021/01/10 05:56:02;;;;;;;2.63;2.25;;;20.80;39.90;;;;;;5112949;28;20020;-38
2021/01/10 05:58:30;;;;;;;3.83;2.38;;;20.80;39.90;;;;;;5113798;28;20032;-46
2021/01/10 06:01:09;;;;;;;2.75;2.30;;;20.80;39.90;;;;;;5112714;28;20159;-57
2021/01/10 06:03:36;;;;;;;3.40;2.42;;;20.80;40.00;;;;;;5113147;28;20023;-56
2021/01/10 06:06:06;;;;;;;3.47;2.50;;;20.80;39.90;;;;;;5113457;28;20024;-40
2021/01/10 06:08:34;;;;;;;2.75;2.10;;;20.80;39.90;;;;;;5113369;28;20023;-55
2021/01/10 06:11:25;;;;;;;3.17;2.20;;;20.80;39.90;;;;;;5113208;28;20031;-43
2021/01/10 06:13:52;;;;;;;2.97;2.40;;;20.80;39.90;;;;;;5112171;28;20059;-37
2021/01/10 06:16:19;;;;;;;4.13;2.42;;;20.80;39.90;;;;;;5113425;28;20032;-37
2021/01/10 06:18:54;;;;;;;3.35;2.30;;;20.80;40.00;;;;;;5111188;28;20346;-54
2021/01/10 06:21:23;;;;;;;3.17;2.50;;;20.80;39.90;;;;;;5113380;28;20035;-55
2021/01/10 06:23:51;;;;;;;3.90;2.70;;;20.80;39.80;;;;;;5112425;28;20098;-58
2021/01/10 06:26:18;;;;;;;2.92;2.33;;;20.80;39.80;;;;;;5113238;28;20035;-50
2021/01/10 06:29:03;;;;;;;3.50;2.40;;;20.80;39.90;;;;;;5111941;28;20031;-41
2021/01/10 06:31:36;;;;;;;3.15;2.10;;;20.80;39.90;;;;;;5112640;28;20048;-41
2021/01/10 06:34:09;;;;;;;4.00;2.60;;;20.80;39.90;;;;;;5110880;28;20031;-39
2021/01/10 06:36:37;;;;;;;2.42;2.22;;;20.80;39.90;;;;;;5111071;28;20027;-56
2021/01/10 06:39:11;;;;;;;2.85;2.30;;;20.80;39.90;;;;;;5109993;28;20499;-49
2021/01/10 06:41:55;;;;;;;2.80;2.30;;;20.80;39.90;;;;;;5111192;28;20023;-53
2021/01/10 06:44:21;;;;;;;2.60;2.15;;;20.80;39.90;;;;;;5110751;28;20098;-44
2021/01/10 06:46:54;;;;;;;3.17;2.40;;;20.80;39.80;;;;;;5110370;28;20023;-37
2021/01/10 06:49:21;;;;;;;2.50;2.20;;;20.80;39.90;;;;;;5111644;27;20372;-44
2021/01/10 06:51:49;;;;;;;2.88;2.30;;;20.80;39.90;;;;;;5107890;28;20035;-44
2021/01/10 06:54:15;;;;;;;4.18;2.70;;;20.80;39.80;;;;;;5111141;28;20030;-42
2021/01/10 06:56:51;;;;;;;2.53;2.20;;;20.80;39.80;;;;;;5111090;28;20020;-48
2021/01/10 06:59:21;;;;;;;2.78;2.20;;;20.80;39.80;;;;;;5112838;28;20035;-50
2021/01/10 07:01:52;;;;;;;2.63;2.20;;;20.80;39.80;;;;;;5111584;28;20034;-46
2021/01/10 07:04:22;;;;;;;2.63;2.10;;;20.80;39.70;;;;;;5112567;28;20016;-42
2021/01/10 07:06:57;;;;;;;2.85;2.42;;;20.80;39.80;;;;;;5111447;28;20510;-45
2021/01/10 07:09:23;;;;;;;2.25;2.00;;;20.80;39.70;;;;;;5111766;28;20027;-47
2021/01/10 07:11:50;;;;;;;3.00;2.45;;;20.80;39.70;;;;;;5111688;28;20043;-41
2021/01/10 07:14:21;;;;;;;2.65;2.33;;;20.90;39.70;;;;;;5111993;28;20556;-48
2021/01/10 07:16:47;;;;;;;3.37;2.37;;;20.80;39.70;;;;;;5109767;28;20720;-48
2021/01/10 07:19:14;;;;;;;3.03;2.20;;;20.80;39.70;;;;;;5111346;28;20027;-51
2021/01/10 07:21:43;;;;;;;3.47;2.25;;;20.80;39.70;;;;;;5109381;28;20022;-47
2021/01/10 07:24:21;;;;;;;2.35;2.00;;;20.80;39.70;;;;;;5111205;28;20469;-45
2021/01/10 07:26:50;;;;;;;3.08;2.42;;;20.80;39.70;;;;;;5110058;28;20484;-51
2021/01/10 07:29:34;;;;;;;2.90;2.20;;;20.90;39.70;;;;;;5110770;28;20031;-45
2021/01/10 07:32:02;;;;;;;3.00;2.38;;;20.80;39.70;;;;;;5107688;28;20039;-44
2021/01/10 07:34:30;;;;;;;2.75;2.28;;;20.90;39.70;;;;;;5110650;28;20443;-47
2021/01/10 07:37:00;;;;;;;3.17;2.20;;;20.80;39.70;;;;;;5107443;28;20156;-38
2021/01/10 07:39:31;;;;;;;3.40;2.47;;;20.80;39.70;;;;;;5111473;28;20099;-46
2021/01/10 07:42:09;;;;;;;2.60;2.35;;;20.90;39.70;;;;;;5111323;28;20031;-43
2021/01/10 07:44:51;;;;;;;3.55;2.53;;;20.80;39.60;;;;;;5111696;28;20031;-41
2021/01/10 07:47:38;;;;;;;3.70;2.30;;;20.90;39.70;;;;;;5112026;28;20371;-43
2021/01/10 07:50:18;;;;;;;3.85;2.42;;;20.90;39.80;;;;;;5111743;28;20157;-36
2021/01/10 07:52:49;;;;;;;3.60;2.50;;;20.90;39.60;;;;;;5111057;28;20024;-52
2021/01/10 07:55:19;;;;;;;8.05;3.53;;;20.90;39.70;;;;;;5111521;28;20501;-46
2021/01/10 07:57:53;;;;;;;3.60;2.42;;;20.90;39.80;;;;;;5110876;28;20385;-48
2021/01/10 08:00:32;;;;;;;3.28;2.17;;;21.00;39.60;;;;;;5111462;28;20038;-47
2021/01/10 08:03:05;;;;;;;3.55;2.45;;;21.00;39.70;;;;;;5110093;28;20027;-46
2021/01/10 08:05:41;;;;;;;3.63;2.30;;;21.00;39.60;;;;;;5111701;28;20022;-48
2021/01/10 08:08:13;;;;;;;4.68;2.45;;;21.00;39.50;;;;;;5111603;28;20034;-47
2021/01/10 08:10:46;;;;;;;3.03;2.10;;;21.10;39.50;;;;;;5110775;28;20035;-57
2021/01/10 08:13:38;;;;;;;5.25;2.47;;;21.10;39.50;;;;;;5111612;28;20048;-46
2021/01/10 08:16:09;;;;;;;3.67;2.03;;;21.10;39.50;;;;;;5109982;28;20035;-46
2021/01/10 08:18:37;;;;;;;3.72;2.35;;;21.20;39.50;;;;;;5111364;28;20468;-46
2021/01/10 08:21:14;;;;;;;3.63;2.20;;;21.20;39.40;;;;;;5111311;28;20039;-46
2021/01/10 08:23:42;;;;;;;3.35;2.38;;;21.20;39.30;;;;;;5114849;28;20108;-51
2021/01/10 08:26:10;;;;;;;3.80;2.35;;;21.20;39.20;;;;;;5115256;27;20499;-45
2021/01/10 08:28:42;;;;;;;4.35;2.30;;;21.30;39.20;;;;;;5114990;28;20392;-46
2021/01/10 08:31:11;;;;;;;4.60;2.85;;;21.30;39.30;;;;;;5115423;28;20043;-49
2021/01/10 08:33:38;;;;;;;4.47;2.40;;;21.30;39.30;;;;;;5114828;28;20613;-52
2021/01/10 08:36:14;;;;;;;4.43;2.40;;;21.30;39.60;;;;;;5114628;28;20076;-48
2021/01/10 08:39:01;;;;;;;5.65;2.10;;;21.30;39.40;;;;;;5128616;27;20106;-50
2021/01/10 08:41:29;;;;;;;2.60;2.30;;;21.40;39.50;;;;;;5135338;27;20031;-48
2021/01/10 08:44:00;;;;;;;5.97;2.35;;;21.40;39.70;;;;;;5134579;27;20019;-46
2021/01/10 08:46:28;;;;;;;3.97;2.75;;;21.40;39.90;;;;;;5134517;27;20015;-46
2021/01/10 08:48:55;;;;;;;4.50;2.30;;;21.40;39.90;;;;;;5133995;27;20038;-40
2021/01/10 08:51:28;;;;;;;4.90;2.67;;;21.50;40.10;;;;;;5116300;27;20112;-47
2021/01/10 08:53:54;;;;;;;7.00;2.30;;;21.50;40.00;;;;;;5113812;27;20031;-45
2021/01/10 08:56:20;;;;;;;4.68;2.63;;;21.50;40.10;;;;;;5114904;28;20027;-41
2021/01/10 08:58:46;;;;;;;6.18;2.60;;;21.50;40.10;;;;;;5113681;28;20073;-47
2021/01/10 09:01:20;;;;;;;3.95;2.60;;;21.50;40.30;;;;;;5113381;28;20047;-44
2021/01/10 09:04:06;;;;;;;8.25;2.47;;;21.50;40.50;;;;;;5113589;27;20031;-45
2021/01/10 09:06:43;;;;;;;6.60;2.55;;;21.50;40.80;;;;;;5114606;27;20019;-44
2021/01/10 09:09:36;;;;;;;8.90;2.88;;;21.60;41.10;;;;;;5114661;28;20456;-49
2021/01/10 09:12:05;;;;;;;5.55;2.63;;;21.60;41.00;;;;;;5114221;28;20058;-53
2021/01/10 09:14:40;;;;;;;6.78;2.42;;;21.60;41.10;;;;;;5113971;28;20097;-45
2021/01/10 09:17:06;;;;;;;6.55;2.67;;;21.60;41.20;;;;;;5113525;28;20028;-46
2021/01/10 09:19:34;;;;;;;3.90;2.20;;;21.50;41.20;;;;;;5113895;28;20031;-56
2021/01/10 09:22:01;;;;;;;4.10;2.30;;;21.50;41.20;;;;;;5113712;28;20164;-52
2021/01/10 09:24:32;;;;;;;11.00;2.60;;;21.50;41.30;;;;;;5114048;28;20092;-49
2021/01/10 09:27:12;;;;;;;6.22;2.97;;;21.50;41.30;;;;;;5113317;28;20460;-56
2021/01/10 09:29:38;;;;;;;4.28;2.25;;;21.50;41.30;;;;;;5114140;28;20036;-53
2021/01/10 09:32:05;;;;;;;3.40;2.45;;;21.50;41.30;;;;;;5113207;28;20032;-41
2021/01/10 09:34:30;;;;;;;5.63;2.30;;;21.50;41.40;;;;;;5114022;28;20167;-55
2021/01/10 09:37:07;;;;;;;5.65;2.55;;;21.50;41.40;;;;;;5117167;27;20105;-53
2021/01/10 09:39:37;;;;;;;4.28;2.20;;;21.50;41.30;;;;;;5135077;27;20034;-52
2021/01/10 09:42:03;;;;;;;4.35;2.22;;;21.50;41.30;;;;;;5133365;27;20127;-48
2021/01/10 09:44:31;;;;;;;4.15;2.13;;;21.50;41.30;;;;;;5134822;27;20023;-51
2021/01/10 09:46:58;;;;;;;4.38;2.45;;;21.50;41.40;;;;;;5133497;27;20035;-54
2021/01/10 09:49:30;;;;;;;5.50;2.40;;;21.50;41.50;;;;;;5133988;27;20066;-48
2021/01/10 09:52:04;;;;;;;4.90;2.33;;;21.60;41.90;;;;;;5134984;27;20026;-49
2021/01/10 09:54:32;;;;;;;8.35;2.30;;;21.60;42.10;;;;;;5134065;27;20027;-52
2021/01/10 09:57:22;;;;;;;4.63;2.47;;;21.60;41.80;;;;;;5133274;27;20019;-50
2021/01/10 09:59:54;;;;;;;6.13;2.42;;;21.60;42.00;;;;;;5131916;27;20027;-49
2021/01/10 10:02:21;;;;;;;7.70;2.53;;;21.50;42.10;;;;;;5133779;27;20406;-50
2021/01/10 10:04:49;;;;;;;5.13;2.10;;;21.60;42.00;;;;;;5133069;27;20038;-41
2021/01/10 10:07:47;;;;;;;6.13;2.45;;;21.60;42.10;;;;;;5127284;27;20076;-49
2021/01/10 10:10:22;;;;;;;2.88;1.92;;;21.60;41.90;;;;;;5113169;28;20035;-45
2021/01/10 10:13:09;;;;;;;3.85;2.03;;;21.60;41.80;;;;;;5120320;27;20027;-44
2021/01/10 10:15:40;;;;;;;4.82;2.20;;;21.60;41.80;;;;;;5131676;27;20100;-47
2021/01/10 10:18:07;;;;;;;3.08;2.22;;;21.60;41.80;;;;;;5113156;28;20118;-53
2021/01/10 10:20:32;;;;;;;4.03;2.70;;;21.60;41.80;;;;;;5112728;28;20028;-55
2021/01/10 10:23:09;;;;;;;2.83;2.50;;;21.50;41.80;;;;;;5112813;28;20345;-52
2021/01/10 10:25:36;;;;;;;8.20;2.47;;;21.50;41.70;;;;;;5113072;28;20019;-54
2021/01/10 10:28:02;;;;;;;6.20;2.45;;;21.60;41.70;;;;;;5112074;28;20337;-50
2021/01/10 10:30:28;;;;;;;5.70;2.50;;;21.60;41.70;;;;;;5113000;28;20071;-53
2021/01/10 10:32:54;;;;;;;5.78;2.80;;;21.60;41.70;;;;;;5112283;28;20030;-50
2021/01/10 10:35:21;;;;;;;3.88;2.00;;;21.60;41.50;;;;;;5120761;27;20103;-52
2021/01/10 10:37:50;;;;;;;4.38;2.40;;;21.60;41.50;;;;;;5132440;27;20027;-48
2021/01/10 10:40:17;;;;;;;6.90;2.05;;;21.60;41.60;;;;;;5133352;27;20035;-50
2021/01/10 10:42:43;;;;;;;6.65;2.30;;;21.60;41.50;;;;;;5133031;27;20027;-53
2021/01/10 10:45:09;;;;;;;7.45;2.42;;;21.70;41.70;;;;;;5114942;27;20076;-49
2021/01/10 10:47:36;;;;;;;4.40;2.45;;;21.70;41.40;;;;;;5112473;27;20038;-49
2021/01/10 10:50:04;;;;;;;9.10;2.33;;;21.60;41.40;;;;;;5111142;28;20024;-49
2021/01/10 10:52:30;;;;;;;7.43;2.10;;;21.60;41.40;;;;;;5112367;28;20024;-51
2021/01/10 10:54:55;;;;;;;3.70;2.50;;;21.60;41.40;;;;;;5110300;28;20076;-46
2021/01/10 10:57:21;;;;;;;9.52;2.10;;;21.60;41.40;;;;;;5111939;28;20020;-45
2021/01/10 10:59:47;;;;;;;4.03;1.95;;;21.60;41.40;;;;;;5111042;28;20046;-47
2021/01/10 11:02:12;;;;;;;3.10;2.00;;;21.60;41.40;;;;;;5110680;28;20031;-51
2021/01/10 11:04:40;;;;;;;5.65;2.20;;;21.70;41.50;;;;;;5108726;28;20020;-45
2021/01/10 11:07:06;;;;;;;5.30;2.53;;;21.70;41.70;;;;;;5115880;27;20031;-47
2021/01/10 11:09:32;;;;;;;5.38;3.55;;;21.70;39.20;;;;;;5120874;28;20031;-50
2021/01/10 11:11:58;;;;;;;6.00;2.97;;;21.70;37.20;;;;;;5111172;28;20102;-49
2021/01/10 11:14:24;;;;;;;3.47;2.63;;;21.70;36.50;;;;;;5110442;28;20607;-47
2021/01/10 11:16:51;;;;;;;4.45;3.05;;;21.60;35.20;;;;;;5111075;28;20019;-48
2021/01/10 11:19:17;;;;;;;5.43;3.50;;;21.50;34.90;;;;;;5111624;28;20488;-53
2021/01/10 11:21:45;;;;;;;9.30;3.30;;;21.50;35.30;;;;;;5110999;28;20028;-56
2021/01/10 11:24:11;;;;;;;6.68;3.00;;;21.40;34.90;;;;;;5111671;28;20019;-48
2021/01/10 11:26:38;;;;;;;9.80;3.17;;;21.50;37.20;;;;;;5091661;28;20097;-48
2021/01/10 11:29:04;;;;;;;5.50;2.80;;;21.50;37.70;;;;;;5090658;28;20048;-50
2021/01/10 11:31:32;;;;;;;7.22;2.88;;;21.40;38.10;;;;;;5091646;28;20039;-43
2021/01/10 11:33:59;;;;;;;8.98;3.75;;;21.40;38.80;;;;;;5089918;28;20368;-46
2021/01/10 11:36:25;;;;;;;5.35;2.42;;;21.40;39.00;;;;;;5091592;28;20059;-46
2021/01/10 11:38:55;;;;;;;5.53;2.40;;;21.40;39.10;;;;;;5130879;28;20043;-46
2021/01/10 11:41:22;;;;;;;5.45;3.20;;;21.40;39.70;;;;;;5132160;27;20495;-48
2021/01/10 11:43:49;;;;;;;6.28;3.28;;;21.40;39.50;;;;;;5130594;28;20019;-53
2021/01/10 11:46:15;;;;;;;7.25;2.42;;;21.50;39.70;;;;;;5132643;27;20027;-49
2021/01/10 11:48:41;;;;;;;8.93;2.50;;;21.50;39.80;;;;;;5132774;27;20020;-52
2021/01/10 11:51:08;;;;;;;8.07;2.30;;;21.50;39.50;;;;;;5131965;27;20035;-47
2021/01/10 11:53:34;;;;;;;11.27;2.53;;;21.40;39.70;;;;;;5132437;27;20027;-48
2021/01/10 11:56:00;;;;;;;13.80;3.45;;;21.40;39.70;;;;;;5125706;27;20030;-53
2021/01/10 11:58:27;;;;;;;17.17;2.67;;;21.40;40.00;;;;;;5115129;28;20119;-52
2021/01/10 12:00:54;;;;;;;11.73;2.42;;;21.50;40.50;;;;;;5114328;28;20067;-41
2021/01/10 12:03:20;;;;;;;13.32;2.85;;;21.40;40.70;;;;;;5115888;28;20023;-50
2021/01/10 12:05:46;;;;;;;12.50;2.90;;;21.30;40.70;;;;;;5115094;28;20024;-53
2021/01/10 12:08:12;;;;;;;17.58;4.32;;;21.30;40.60;;;;;;5130305;27;20054;-52
2021/01/10 12:10:39;;;;;;;29.25;8.35;;;21.20;40.90;;;;;;5136288;27;20027;-56
2021/01/10 12:13:05;;;;;;;24.95;7.10;;;21.30;41.10;;;;;;5135539;27;20019;-48
2021/01/10 12:15:33;;;;;;;23.70;7.07;;;21.30;40.90;;;;;;5136505;27;20126;-49
2021/01/10 12:17:59;;;;;;;29.17;7.90;;;21.30;40.70;;;;;;5135145;27;20487;-46
2021/01/10 12:20:25;;;;;;;19.42;7.20;;;21.30;40.70;;;;;;5136610;27;20050;-46
2021/01/10 12:22:51;;;;;;;23.30;6.13;;;21.20;40.40;;;;;;5134694;27;20472;-46
2021/01/10 12:25:16;;;;;;;15.63;6.15;;;21.20;40.30;;;;;;5136117;27;20027;-45
2021/01/10 12:27:44;;;;;;;24.23;5.65;;;21.20;40.70;;;;;;5135676;27;20069;-47
2021/01/10 12:30:10;;;;;;;22.42;6.60;;;21.20;40.80;;;;;;5135186;27;20118;-46
2021/01/10 12:32:37;;;;;;;18.33;5.22;;;21.20;41.10;;;;;;5136082;27;20023;-47
2021/01/10 12:35:08;;;;;;;16.02;5.30;;;21.20;41.10;;;;;;5133898;27;20114;-43
2021/01/10 12:37:35;;;;;;;22.00;5.55;;;21.20;41.40;;;;;;5126441;27;20028;-37
2021/01/10 12:40:01;;;;;;;18.02;5.70;;;21.20;41.50;;;;;;5114370;28;20035;-44
2021/01/10 12:42:27;;;;;;;17.65;4.80;;;21.20;41.40;;;;;;5113881;28;20027;-42
2021/01/10 12:44:53;;;;;;;20.45;5.10;;;21.20;41.50;;;;;;5114396;28;20052;-45
2021/01/10 12:47:18;;;;;;;22.55;4.70;;;21.20;41.60;;;;;;5114943;28;20380;-40
2021/01/10 12:49:45;;;;;;;15.23;5.60;;;21.20;41.60;;;;;;5114891;28;20031;-45
2021/01/10 12:52:11;;;;;;;15.13;4.47;;;21.30;41.70;;;;;;5114518;28;20032;-44
2021/01/10 12:54:36;;;;;;;20.73;4.93;;;21.30;41.80;;;;;;5113476;28;20076;-44
2021/01/10 12:57:03;;;;;;;14.70;4.22;;;21.30;41.60;;;;;;5113879;28;20038;-45